LOT3KT EDDB-EPWA
Flight info
| Callsign | LOT3KT |
|---|---|
| Flight time | 0h 48m |
| Altitude | 35000 |
| Route | ARSAP4N/24L ARSAP Y209 KELOD DCT OBOKU DCT DOSIX DCT BIMPA |
| Aircraft | E75L/M-SDE3GILORVW/S |
Departure
| Time | 2026-05-03 20:20 |
|---|---|
| Airport | Berlin Brandenburg Airport (EDDB) |
Arrival
| Time | 2026-05-03 21:09 |
|---|---|
| Airport | Warsaw Chopin Airport (EPWA) |
| Time | Latitude | Longitude | Altitude | Speed | Heading |
|---|---|---|---|---|---|
| 2026-05-03 20:15 | 52.36131 | 13.50721 | 163 ft | 2 kts | 69° |
| 2026-05-03 20:15 | 52.36126 | 13.50698 | 163 ft | 2 kts | 69° |
| 2026-05-03 20:15 | 52.36120 | 13.50675 | 163 ft | 2 kts | 69° |
| 2026-05-03 20:15 | 52.36115 | 13.50652 | 163 ft | 2 kts | 69° |
| 2026-05-03 20:16 | 52.36110 | 13.50630 | 163 ft | 1 kts | 75° |
| 2026-05-03 20:16 | 52.36113 | 13.50611 | 163 ft | 1 kts | 137° |
| 2026-05-03 20:16 | 52.36120 | 13.50604 | 163 ft | 0 kts | 159° |
| 2026-05-03 20:17 | 52.36115 | 13.50607 | 163 ft | 2 kts | 159° |
| 2026-05-03 20:18 | 52.36086 | 13.50625 | 163 ft | 6 kts | 158° |
| 2026-05-03 20:18 | 52.36021 | 13.50667 | 163 ft | 13 kts | 158° |
| 2026-05-03 20:18 | 52.35928 | 13.50727 | 163 ft | 14 kts | 159° |
| 2026-05-03 20:18 | 52.35828 | 13.50787 | 163 ft | 15 kts | 158° |
| 2026-05-03 20:19 | 52.35725 | 13.50840 | 163 ft | 15 kts | 180° |
| 2026-05-03 20:19 | 52.35621 | 13.50742 | 163 ft | 19 kts | 219° |
| 2026-05-03 20:19 | 52.35503 | 13.50587 | 163 ft | 25 kts | 218° |
| 2026-05-03 20:19 | 52.35340 | 13.50212 | 163 ft | 72 kts | 248° |
| 2026-05-03 20:20 | 52.35072 | 13.49084 | 163 ft | 139 kts | 249° |
| 2026-05-03 20:20 | 52.34670 | 13.47357 | 431 ft | 171 kts | 249° |
| 2026-05-03 20:20 | 52.34136 | 13.45707 | 1208 ft | 172 kts | 228° |
| 2026-05-03 20:20 | 52.33340 | 13.44261 | 1908 ft | 177 kts | 230° |
| 2026-05-03 20:21 | 52.32531 | 13.42802 | 2524 ft | 168 kts | 227° |
| 2026-05-03 20:21 | 52.31739 | 13.41366 | 3189 ft | 174 kts | 229° |
| 2026-05-03 20:21 | 52.30938 | 13.39867 | 3855 ft | 181 kts | 229° |
| 2026-05-03 20:21 | 52.30071 | 13.38203 | 4102 ft | 206 kts | 230° |
| 2026-05-03 20:22 | 52.29102 | 13.36315 | 4321 ft | 229 kts | 230° |
| 2026-05-03 20:22 | 52.28023 | 13.34204 | 4569 ft | 251 kts | 230° |
| 2026-05-03 20:22 | 52.26868 | 13.31992 | 5008 ft | 261 kts | 223° |
| 2026-05-03 20:22 | 52.25275 | 13.30667 | 5601 ft | 262 kts | 188° |
| 2026-05-03 20:23 | 52.23575 | 13.31120 | 6433 ft | 248 kts | 156° |
| 2026-05-03 20:23 | 52.22102 | 13.32383 | 7156 ft | 235 kts | 155° |
| 2026-05-03 20:23 | 52.20680 | 13.33652 | 7619 ft | 233 kts | 148° |
| 2026-05-03 20:23 | 52.19680 | 13.35764 | 7900 ft | 249 kts | 111° |
| 2026-05-03 20:24 | 52.19630 | 13.38660 | 8025 ft | 270 kts | 77° |
| 2026-05-03 20:24 | 52.20216 | 13.41624 | 8137 ft | 282 kts | 75° |
| 2026-05-03 20:24 | 52.20820 | 13.44839 | 8298 ft | 310 kts | 76° |
| 2026-05-03 20:24 | 52.21442 | 13.48321 | 8480 ft | 334 kts | 76° |
| 2026-05-03 20:25 | 52.22095 | 13.52069 | 8627 ft | 353 kts | 76° |
| 2026-05-03 20:25 | 52.22766 | 13.55969 | 8949 ft | 365 kts | 76° |
| 2026-05-03 20:25 | 52.23447 | 13.60002 | 9600 ft | 367 kts | 79° |
| 2026-05-03 20:25 | 52.23528 | 13.64090 | 10379 ft | 362 kts | 99° |
| 2026-05-03 20:26 | 52.23331 | 13.68177 | 11092 ft | 364 kts | 96° |
| 2026-05-03 20:26 | 52.23261 | 13.72317 | 11749 ft | 367 kts | 94° |
| 2026-05-03 20:26 | 52.23236 | 13.76239 | 12296 ft | 372 kts | 94° |
| 2026-05-03 20:26 | 52.23224 | 13.80463 | 12859 ft | 377 kts | 93° |
| 2026-05-03 20:27 | 52.23217 | 13.84761 | 13456 ft | 380 kts | 93° |
| 2026-05-03 20:27 | 52.23210 | 13.89054 | 14033 ft | 383 kts | 93° |
| 2026-05-03 20:27 | 52.23203 | 13.93438 | 14612 ft | 386 kts | 93° |
| 2026-05-03 20:27 | 52.23194 | 13.97833 | 15189 ft | 389 kts | 93° |
| 2026-05-03 20:28 | 52.23183 | 14.02219 | 15736 ft | 392 kts | 93° |
| 2026-05-03 20:28 | 52.23170 | 14.06662 | 16116 ft | 400 kts | 93° |
| 2026-05-03 20:28 | 52.23156 | 14.11285 | 16254 ft | 414 kts | 93° |
| 2026-05-03 20:28 | 52.23139 | 14.16035 | 16547 ft | 423 kts | 92° |
| 2026-05-03 20:29 | 52.23120 | 14.20865 | 16993 ft | 424 kts | 92° |
| 2026-05-03 20:29 | 52.23100 | 14.25621 | 17447 ft | 425 kts | 92° |
| 2026-05-03 20:29 | 52.23076 | 14.30482 | 17907 ft | 428 kts | 92° |
| 2026-05-03 20:29 | 52.23051 | 14.35325 | 18371 ft | 431 kts | 92° |
| 2026-05-03 20:30 | 52.23024 | 14.40222 | 18841 ft | 434 kts | 92° |
| 2026-05-03 20:30 | 52.22994 | 14.45126 | 19312 ft | 436 kts | 92° |
| 2026-05-03 20:30 | 52.22963 | 14.50073 | 19790 ft | 438 kts | 92° |
| 2026-05-03 20:30 | 52.22929 | 14.55023 | 20260 ft | 440 kts | 92° |
| 2026-05-03 20:31 | 52.22893 | 14.59968 | 20736 ft | 441 kts | 92° |
| 2026-05-03 20:31 | 52.22855 | 14.64978 | 21218 ft | 442 kts | 92° |
| 2026-05-03 20:31 | 52.22814 | 14.69994 | 21700 ft | 443 kts | 93° |
| 2026-05-03 20:31 | 52.22839 | 14.75060 | 22184 ft | 444 kts | 91° |
| 2026-05-03 20:32 | 52.22888 | 14.80091 | 22666 ft | 445 kts | 91° |
| 2026-05-03 20:32 | 52.22934 | 14.85163 | 23153 ft | 445 kts | 91° |
| 2026-05-03 20:32 | 52.22977 | 14.90195 | 23643 ft | 445 kts | 91° |
| 2026-05-03 20:32 | 52.23018 | 14.95255 | 24146 ft | 445 kts | 91° |
| 2026-05-03 20:33 | 52.23056 | 15.00265 | 24646 ft | 445 kts | 91° |
| 2026-05-03 20:33 | 52.23093 | 15.05268 | 25149 ft | 445 kts | 90° |
| 2026-05-03 20:33 | 52.23127 | 15.10324 | 25647 ft | 444 kts | 90° |
| 2026-05-03 20:33 | 52.23160 | 15.15357 | 26153 ft | 444 kts | 90° |
| 2026-05-03 20:34 | 52.23190 | 15.20365 | 26660 ft | 444 kts | 90° |
| 2026-05-03 20:34 | 52.23217 | 15.25343 | 27163 ft | 443 kts | 90° |
| 2026-05-03 20:34 | 52.23243 | 15.30347 | 27668 ft | 442 kts | 90° |
| 2026-05-03 20:34 | 52.23267 | 15.35372 | 28175 ft | 441 kts | 90° |
| 2026-05-03 20:35 | 52.23288 | 15.40345 | 28677 ft | 441 kts | 90° |
| 2026-05-03 20:35 | 52.23308 | 15.45287 | 29176 ft | 439 kts | 90° |
| 2026-05-03 20:35 | 52.23325 | 15.50249 | 29669 ft | 438 kts | 90° |
| 2026-05-03 20:35 | 52.23340 | 15.55222 | 30173 ft | 437 kts | 90° |
| 2026-05-03 20:36 | 52.23353 | 15.60130 | 30670 ft | 436 kts | 89° |
| 2026-05-03 20:36 | 52.23364 | 15.65084 | 31184 ft | 434 kts | 90° |
| 2026-05-03 20:36 | 52.23373 | 15.69993 | 31686 ft | 432 kts | 90° |
| 2026-05-03 20:36 | 52.23380 | 15.74945 | 32196 ft | 431 kts | 90° |
| 2026-05-03 20:37 | 52.23384 | 15.79636 | 32679 ft | 429 kts | 90° |
| 2026-05-03 20:37 | 52.23387 | 15.84527 | 33185 ft | 427 kts | 90° |
| 2026-05-03 20:37 | 52.23396 | 15.89382 | 33683 ft | 424 kts | 89° |
| 2026-05-03 20:37 | 52.23485 | 15.94148 | 34176 ft | 422 kts | 88° |
| 2026-05-03 20:38 | 52.23569 | 15.98927 | 34671 ft | 419 kts | 88° |
| 2026-05-03 20:38 | 52.23648 | 16.03665 | 34903 ft | 423 kts | 88° |
| 2026-05-03 20:38 | 52.23725 | 16.08486 | 34935 ft | 431 kts | 88° |
| 2026-05-03 20:39 | 52.23880 | 16.18425 | 34944 ft | 448 kts | 88° |
| 2026-05-03 20:39 | 52.24030 | 16.28743 | 34946 ft | 463 kts | 88° |
| 2026-05-03 20:40 | 52.24177 | 16.39403 | 34946 ft | 477 kts | 88° |
| 2026-05-03 20:40 | 52.24317 | 16.50346 | 34946 ft | 489 kts | 88° |
| 2026-05-03 20:41 | 52.24448 | 16.61336 | 34938 ft | 477 kts | 88° |
| 2026-05-03 20:41 | 52.24566 | 16.72118 | 34950 ft | 475 kts | 89° |
| 2026-05-03 20:42 | 52.24673 | 16.82739 | 34949 ft | 475 kts | 89° |
| 2026-05-03 20:42 | 52.24772 | 16.93536 | 34955 ft | 475 kts | 89° |
| 2026-05-03 20:43 | 52.24862 | 17.04338 | 34956 ft | 475 kts | 89° |
| 2026-05-03 20:43 | 52.24941 | 17.15100 | 34957 ft | 473 kts | 88° |
| 2026-05-03 20:44 | 52.25010 | 17.25794 | 34961 ft | 474 kts | 88° |
| 2026-05-03 20:44 | 52.25068 | 17.36475 | 34955 ft | 467 kts | 88° |
| 2026-05-03 20:45 | 52.25118 | 17.47026 | 34959 ft | 465 kts | 88° |
| 2026-05-03 20:45 | 52.25157 | 17.57560 | 34960 ft | 464 kts | 88° |
| 2026-05-03 20:46 | 52.25187 | 17.68009 | 34957 ft | 464 kts | 89° |
| 2026-05-03 20:46 | 52.25207 | 17.78500 | 34713 ft | 464 kts | 89° |
| 2026-05-03 20:46 | 52.25214 | 17.83353 | 33026 ft | 473 kts | 89° |
| 2026-05-03 20:47 | 52.25219 | 17.88603 | 31370 ft | 462 kts | 89° |
| 2026-05-03 20:47 | 52.25221 | 17.93682 | 30766 ft | 439 kts | 89° |
| 2026-05-03 20:47 | 52.25222 | 17.98668 | 30120 ft | 438 kts | 88° |
| 2026-05-03 20:47 | 52.25496 | 18.03654 | 29691 ft | 438 kts | 81° |
| 2026-05-03 20:48 | 52.25923 | 18.08548 | 29170 ft | 438 kts | 81° |
| 2026-05-03 20:48 | 52.26334 | 18.13452 | 28687 ft | 436 kts | 81° |
| 2026-05-03 20:48 | 52.26735 | 18.18326 | 28209 ft | 433 kts | 81° |
| 2026-05-03 20:48 | 52.27129 | 18.23148 | 27735 ft | 430 kts | 81° |
| 2026-05-03 20:49 | 52.27519 | 18.27941 | 27261 ft | 427 kts | 81° |
| 2026-05-03 20:49 | 52.27906 | 18.32743 | 26793 ft | 424 kts | 81° |
| 2026-05-03 20:49 | 52.28290 | 18.37518 | 26325 ft | 422 kts | 81° |
| 2026-05-03 20:49 | 52.28668 | 18.42246 | 25861 ft | 419 kts | 81° |
| 2026-05-03 20:50 | 52.29040 | 18.46927 | 25404 ft | 416 kts | 81° |
| 2026-05-03 20:50 | 52.29406 | 18.51539 | 24992 ft | 412 kts | 82° |
| 2026-05-03 20:50 | 52.29771 | 18.56187 | 24487 ft | 413 kts | 82° |
| 2026-05-03 20:50 | 52.30133 | 18.60803 | 24037 ft | 410 kts | 82° |
| 2026-05-03 20:51 | 52.30491 | 18.65404 | 23585 ft | 407 kts | 82° |
| 2026-05-03 20:51 | 52.30844 | 18.69954 | 23152 ft | 405 kts | 83° |
| 2026-05-03 20:51 | 52.31197 | 18.74533 | 22697 ft | 404 kts | 83° |
| 2026-05-03 20:51 | 52.31511 | 18.78617 | 22299 ft | 402 kts | 83° |
| 2026-05-03 20:52 | 52.31841 | 18.82941 | 21875 ft | 400 kts | 83° |
| 2026-05-03 20:52 | 52.32180 | 18.87411 | 21438 ft | 398 kts | 83° |
| 2026-05-03 20:52 | 52.32510 | 18.91764 | 21011 ft | 396 kts | 83° |
| 2026-05-03 20:52 | 52.32843 | 18.96192 | 20578 ft | 395 kts | 83° |
| 2026-05-03 20:53 | 52.33178 | 19.00671 | 20140 ft | 394 kts | 83° |
| 2026-05-03 20:53 | 52.33506 | 19.05078 | 19714 ft | 391 kts | 83° |
| 2026-05-03 20:53 | 52.33828 | 19.09419 | 19287 ft | 390 kts | 83° |
| 2026-05-03 20:53 | 52.34152 | 19.13812 | 18856 ft | 388 kts | 83° |
| 2026-05-03 20:54 | 52.34472 | 19.18187 | 18429 ft | 387 kts | 83° |
| 2026-05-03 20:54 | 52.35012 | 19.26868 | 17575 ft | 383 kts | 85° |
| 2026-05-03 20:54 | 52.35226 | 19.31161 | 17160 ft | 380 kts | 85° |
| 2026-05-03 20:55 | 52.35438 | 19.35437 | 16748 ft | 378 kts | 85° |
| 2026-05-03 20:55 | 52.35647 | 19.39685 | 16332 ft | 376 kts | 85° |
| 2026-05-03 20:55 | 52.35854 | 19.43922 | 15918 ft | 373 kts | 85° |
| 2026-05-03 20:55 | 52.36058 | 19.48137 | 15513 ft | 371 kts | 86° |
| 2026-05-03 20:56 | 52.36259 | 19.52321 | 15104 ft | 369 kts | 86° |
| 2026-05-03 20:56 | 52.36457 | 19.56468 | 14699 ft | 367 kts | 86° |
| 2026-05-03 20:56 | 52.36655 | 19.60647 | 14289 ft | 365 kts | 86° |
| 2026-05-03 20:56 | 52.36849 | 19.64761 | 13887 ft | 363 kts | 86° |
| 2026-05-03 20:57 | 52.37039 | 19.68839 | 13490 ft | 360 kts | 87° |
| 2026-05-03 20:57 | 52.37228 | 19.72918 | 13097 ft | 358 kts | 86° |
| 2026-05-03 20:57 | 52.37380 | 19.76917 | 12700 ft | 355 kts | 94° |
| 2026-05-03 20:57 | 52.37103 | 19.80271 | 12399 ft | 351 kts | 102° |
| 2026-05-03 20:58 | 52.36657 | 19.84179 | 12001 ft | 349 kts | 102° |
| 2026-05-03 20:58 | 52.36220 | 19.87963 | 11626 ft | 346 kts | 102° |
| 2026-05-03 20:58 | 52.35776 | 19.91783 | 11245 ft | 338 kts | 102° |
| 2026-05-03 20:58 | 52.35345 | 19.95484 | 10877 ft | 329 kts | 102° |
| 2026-05-03 20:59 | 52.34921 | 19.99105 | 10517 ft | 320 kts | 102° |
| 2026-05-03 20:59 | 52.34509 | 20.02615 | 10174 ft | 312 kts | 102° |
| 2026-05-03 20:59 | 52.34103 | 20.06061 | 9829 ft | 304 kts | 102° |
| 2026-05-03 20:59 | 52.33706 | 20.09426 | 9500 ft | 300 kts | 102° |
| 2026-05-03 21:00 | 52.33311 | 20.12764 | 9178 ft | 298 kts | 102° |
| 2026-05-03 21:00 | 52.33180 | 20.13866 | 9074 ft | 298 kts | 102° |
| 2026-05-03 21:00 | 52.32526 | 20.19374 | 8528 ft | 297 kts | 102° |
| 2026-05-03 21:00 | 52.32131 | 20.22688 | 8198 ft | 296 kts | 102° |
| 2026-05-03 21:01 | 52.31739 | 20.25964 | 7830 ft | 294 kts | 102° |
| 2026-05-03 21:01 | 52.31348 | 20.29227 | 7564 ft | 293 kts | 102° |
| 2026-05-03 21:01 | 52.30959 | 20.32465 | 7216 ft | 285 kts | 102° |
| 2026-05-03 21:01 | 52.30588 | 20.35548 | 6913 ft | 277 kts | 102° |
| 2026-05-03 21:02 | 52.30220 | 20.38601 | 6597 ft | 269 kts | 103° |
| 2026-05-03 21:02 | 52.29865 | 20.41532 | 6321 ft | 262 kts | 102° |
| 2026-05-03 21:02 | 52.29515 | 20.44422 | 6034 ft | 256 kts | 103° |
| 2026-05-03 21:02 | 52.29169 | 20.47267 | 5758 ft | 251 kts | 103° |
| 2026-05-03 21:03 | 52.28828 | 20.50063 | 5461 ft | 250 kts | 103° |
| 2026-05-03 21:03 | 52.28490 | 20.52837 | 5220 ft | 250 kts | 103° |
| 2026-05-03 21:03 | 52.28020 | 20.55543 | 4954 ft | 248 kts | 114° |
| 2026-05-03 21:03 | 52.27355 | 20.58143 | 4690 ft | 248 kts | 116° |
| 2026-05-03 21:04 | 52.26649 | 20.60697 | 4422 ft | 246 kts | 117° |
| 2026-05-03 21:04 | 52.25956 | 20.63184 | 4229 ft | 236 kts | 117° |
| 2026-05-03 21:04 | 52.25285 | 20.65583 | 3968 ft | 230 kts | 118° |
| 2026-05-03 21:04 | 52.24627 | 20.67920 | 3699 ft | 224 kts | 118° |
| 2026-05-03 21:05 | 52.24051 | 20.69983 | 3458 ft | 219 kts | 118° |
| 2026-05-03 21:05 | 52.23459 | 20.72110 | 3233 ft | 213 kts | 118° |
| 2026-05-03 21:05 | 52.22870 | 20.74229 | 3026 ft | 205 kts | 118° |
| 2026-05-03 21:05 | 52.22303 | 20.76263 | 2770 ft | 201 kts | 118° |
| 2026-05-03 21:06 | 52.21733 | 20.78309 | 2527 ft | 192 kts | 119° |
| 2026-05-03 21:06 | 52.21213 | 20.80179 | 2295 ft | 173 kts | 119° |
| 2026-05-03 21:06 | 52.20732 | 20.81899 | 2033 ft | 159 kts | 120° |
| 2026-05-03 21:06 | 52.20289 | 20.83484 | 1817 ft | 152 kts | 120° |
| 2026-05-03 21:07 | 52.19851 | 20.85042 | 1650 ft | 151 kts | 120° |
| 2026-05-03 21:07 | 52.19420 | 20.86580 | 1452 ft | 151 kts | 120° |
| 2026-05-03 21:07 | 52.18980 | 20.88137 | 1269 ft | 151 kts | 119° |
| 2026-05-03 21:07 | 52.18545 | 20.89681 | 1126 ft | 148 kts | 118° |
| 2026-05-03 21:08 | 52.18123 | 20.91232 | 892 ft | 147 kts | 117° |
| 2026-05-03 21:08 | 52.17714 | 20.92714 | 702 ft | 142 kts | 118° |
| 2026-05-03 21:08 | 52.17291 | 20.94173 | 488 ft | 141 kts | 117° |
| 2026-05-03 21:08 | 52.16900 | 20.95571 | 364 ft | 127 kts | 115° |
| 2026-05-03 21:09 | 52.16593 | 20.96633 | 364 ft | 75 kts | 113° |
| 2026-05-03 21:09 | 52.16506 | 20.97150 | 363 ft | 25 kts | 79° |
| 2026-05-03 21:09 | 52.16531 | 20.97333 | 363 ft | 13 kts | 48° |
| 2026-05-03 21:09 | 52.16594 | 20.97298 | 363 ft | 11 kts | 294° |
| 2026-05-03 21:10 | 52.16655 | 20.97238 | 363 ft | 11 kts | 4° |
| 2026-05-03 21:10 | 52.16732 | 20.97244 | 363 ft | 10 kts | 352° |
| 2026-05-03 21:10 | 52.16800 | 20.97193 | 363 ft | 10 kts | 332° |
| 2026-05-03 21:10 | 52.16872 | 20.97129 | 363 ft | 12 kts | 329° |
| 2026-05-03 21:11 | 52.16936 | 20.97045 | 363 ft | 11 kts | 343° |
| 2026-05-03 21:11 | 52.16989 | 20.97101 | 363 ft | 9 kts | 72° |
| 2026-05-03 21:11 | 52.16999 | 20.97140 | 363 ft | 1 kts | 69° |
| 2026-05-03 21:11 | 52.17000 | 20.97146 | 363 ft | 0 kts | 68° |